createdAt,value
2023-05-09T00:01:14.707Z,99214.09
2023-05-09T00:03:44.573Z,99214.06
2023-05-09T00:06:11.881Z,99215.78
2023-05-09T00:08:38.662Z,99211.25
2023-05-09T00:11:05.672Z,99214.84
2023-05-09T00:13:33.012Z,99209.53
2023-05-09T00:16:02.279Z,99212.28
2023-05-09T00:18:31.395Z,99216.13
2023-05-09T00:20:58.753Z,99211.97
2023-05-09T00:23:25.534Z,99216.56
2023-05-09T00:25:52.176Z,99206.91
2023-05-09T00:28:20.125Z,99200.81
2023-05-09T00:33:33.041Z,99199.88
2023-05-09T00:35:59.884Z,99195.59
2023-05-09T00:38:26.623Z,99196.75
2023-05-09T00:40:53.715Z,99188.81
2023-05-09T00:43:21.503Z,99187.16
2023-05-09T00:45:50.120Z,99193.53
2023-05-09T00:48:17.119Z,99192.91
2023-05-09T00:50:44.106Z,99187.59
2023-05-09T00:53:11.018Z,99188.53
2023-05-09T00:55:40.304Z,99180.63
2023-05-09T00:58:07.021Z,99177.94
2023-05-09T01:00:33.757Z,99177.13
2023-05-09T01:03:00.576Z,99181.81
2023-05-09T01:05:38.365Z,99175.84
2023-05-09T01:08:18.196Z,99178.50
2023-05-09T01:11:04.121Z,99167.03
2023-05-09T01:14:01.359Z,99174.13
2023-05-09T01:16:57.587Z,99172.25
2023-05-09T01:19:58.408Z,99170.38
2023-05-09T01:22:32.142Z,99169.63
2023-05-09T01:25:26.886Z,99170.63
2023-05-09T01:28:14.577Z,99170.66
2023-05-09T01:30:46.410Z,99169.00
2023-05-09T01:33:18.415Z,99165.50
2023-05-09T01:35:50.073Z,99175.19
2023-05-09T01:38:20.083Z,99173.59
2023-05-09T01:40:53.121Z,99169.53
2023-05-09T01:43:22.158Z,99167.13
2023-05-09T01:45:51.714Z,99168.28
2023-05-09T01:48:18.858Z,99163.75
2023-05-09T01:50:46.571Z,99159.25
2023-05-09T01:53:15.613Z,99163.72
2023-05-09T01:55:44.224Z,99156.53
2023-05-09T01:58:11.696Z,99153.91
2023-05-09T02:00:39.091Z,99154.81
2023-05-09T02:03:06.353Z,99151.19
2023-05-09T02:05:34.972Z,99157.38
2023-05-09T02:08:01.707Z,99148.72
2023-05-09T02:10:29.499Z,99153.13
2023-05-09T02:12:57.622Z,99150.56
2023-05-09T02:15:26.079Z,99156.63
2023-05-09T02:17:53.575Z,99154.94
2023-05-09T02:20:20.647Z,99150.66
2023-05-09T02:22:48.079Z,99147.13
2023-05-09T02:25:18.897Z,99156.03
2023-05-09T02:27:47.092Z,99147.16
2023-05-09T02:30:25.492Z,99150.47
2023-05-09T02:32:59.110Z,99148.97
2023-05-09T02:35:28.912Z,99150.88
2023-05-09T02:37:57.412Z,99150.09
2023-05-09T02:40:26.419Z,99146.50
2023-05-09T02:42:53.138Z,99141.16
2023-05-09T02:45:19.983Z,99145.69
2023-05-09T02:47:47.133Z,99132.31
2023-05-09T02:50:14.020Z,99139.44
2023-05-09T02:52:41.140Z,99137.59
2023-05-09T02:55:08.510Z,99137.53
2023-05-09T02:57:35.507Z,99141.28
2023-05-09T03:00:02.435Z,99142.31
2023-05-09T03:02:29.423Z,99145.94
2023-05-09T03:04:56.653Z,99146.84
2023-05-09T03:07:23.441Z,99140.44
2023-05-09T03:09:50.177Z,99145.75
2023-05-09T03:12:16.927Z,99146.72
2023-05-09T03:14:44.874Z,99141.25
2023-05-09T03:17:11.525Z,99138.44
2023-05-09T03:19:38.249Z,99136.50
2023-05-09T03:22:04.976Z,99138.31
2023-05-09T03:24:31.890Z,99151.72
2023-05-09T03:26:58.659Z,99143.56
2023-05-09T03:29:26.427Z,99139.13
2023-05-09T03:31:53.231Z,99143.56
2023-05-09T03:34:20.304Z,99140.84
2023-05-09T03:36:47.004Z,99134.66
2023-05-09T03:39:13.723Z,99139.13
2023-05-09T03:41:40.666Z,99135.28
2023-05-09T03:44:07.716Z,99133.47
2023-05-09T03:46:35.051Z,99135.91
2023-05-09T03:49:01.857Z,99131.41
2023-05-09T03:51:28.616Z,99124.31
2023-05-09T03:53:56.359Z,99129.63
2023-05-09T03:56:23.170Z,99137.91
2023-05-09T03:58:49.945Z,99136.13
2023-05-09T04:01:17.940Z,99136.00
2023-05-09T04:03:44.792Z,99141.25
2023-05-09T04:06:12.817Z,99126.75
2023-05-09T04:08:39.552Z,99137.13
2023-05-09T04:11:06.409Z,99136.75
2023-05-09T04:13:35.789Z,99143.59
2023-05-09T04:16:02.817Z,99135.47
2023-05-09T04:18:31.248Z,99137.47
2023-05-09T04:20:58.141Z,99131.19
2023-05-09T04:23:24.907Z,99124.75
2023-05-09T04:25:52.211Z,99140.22
2023-05-09T04:28:18.924Z,99127.34
2023-05-09T04:30:46.750Z,99137.66
2023-05-09T04:33:13.505Z,99130.47
2023-05-09T04:35:41.326Z,99130.22
2023-05-09T04:38:08.238Z,99137.22
2023-05-09T04:40:35.068Z,99136.81
2023-05-09T04:43:01.800Z,99128.59
2023-05-09T04:45:28.574Z,99126.47
2023-05-09T04:47:55.272Z,99132.31
2023-05-09T04:50:22.165Z,99131.88
2023-05-09T04:52:48.952Z,99118.19
2023-05-09T04:55:16.147Z,99117.06
2023-05-09T04:57:44.180Z,99117.69
2023-05-09T05:00:12.056Z,99111.00
2023-05-09T05:02:39.090Z,99123.38
2023-05-09T05:05:12.150Z,99111.56
2023-05-09T05:07:39.670Z,99120.22
2023-05-09T05:10:06.882Z,99121.72
2023-05-09T05:12:33.646Z,99121.31
2023-05-09T05:15:00.708Z,99119.94
2023-05-09T05:17:29.712Z,99121.97
2023-05-09T05:19:56.563Z,99113.53
2023-05-09T05:22:23.683Z,99125.78
2023-05-09T05:24:50.438Z,99118.19
2023-05-09T05:27:17.153Z,99116.75
2023-05-09T05:29:44.264Z,99112.13
2023-05-09T05:32:11.157Z,99124.25
2023-05-09T05:34:39.544Z,99113.16
2023-05-09T05:37:06.416Z,99104.09
2023-05-09T05:39:33.174Z,99117.28
2023-05-09T05:42:01.489Z,99116.84
2023-05-09T05:44:28.197Z,99113.72
2023-05-09T05:46:56.207Z,99098.00
2023-05-09T05:49:25.173Z,99103.13
2023-05-09T05:51:51.897Z,99098.72
2023-05-09T05:54:19.609Z,99094.63
2023-05-09T05:56:46.309Z,99082.59
2023-05-09T05:59:13.619Z,99084.88
2023-05-09T06:01:40.895Z,99097.03
2023-05-09T06:04:08.048Z,99080.16
2023-05-09T06:06:34.872Z,99103.25
2023-05-09T06:09:05.268Z,99076.50
2023-05-09T06:11:38.505Z,99084.69
2023-05-09T06:14:06.763Z,99071.19
2023-05-09T06:16:33.628Z,99066.72
2023-05-09T06:19:00.530Z,99065.66
2023-05-09T06:21:27.370Z,99069.34
2023-05-09T06:24:09.793Z,99057.16
2023-05-09T06:26:37.183Z,99061.28
2023-05-09T06:29:06.387Z,99044.22
2023-05-09T06:31:38.359Z,99060.75
2023-05-09T06:34:06.355Z,99052.44
2023-05-09T06:36:33.619Z,99048.63
2023-05-09T06:39:01.048Z,99049.97
2023-05-09T06:41:27.866Z,99043.59
2023-05-09T06:43:54.536Z,99030.63
2023-05-09T06:46:21.372Z,99039.59
2023-05-09T06:48:48.509Z,99032.66
2023-05-09T06:51:15.264Z,99016.19
2023-05-09T06:53:42.215Z,99028.00
2023-05-09T06:56:09.967Z,99023.72
2023-05-09T06:58:37.924Z,99012.19
2023-05-09T07:01:04.821Z,99010.94
2023-05-09T07:03:34.533Z,99014.41
2023-05-09T07:06:04.029Z,99008.53
2023-05-09T07:08:31.715Z,98996.16
2023-05-09T07:10:58.417Z,99003.06
2023-05-09T07:13:25.193Z,99029.88
2023-05-09T07:15:52.018Z,99005.25
2023-05-09T07:18:18.785Z,99014.72
2023-05-09T07:20:45.976Z,99006.19
2023-05-09T07:23:12.826Z,98996.34
2023-05-09T07:25:39.560Z,98983.34
2023-05-09T07:28:06.950Z,98958.88
2023-05-09T07:30:33.712Z,98988.63
2023-05-09T07:33:01.539Z,98981.66
2023-05-09T07:35:28.568Z,99006.06
2023-05-09T07:37:55.435Z,98990.91
2023-05-09T07:40:22.161Z,98997.06
2023-05-09T07:42:50.159Z,99000.78
2023-05-09T07:45:17.948Z,99005.81
2023-05-09T07:47:45.718Z,98978.72
2023-05-09T07:50:12.551Z,98982.81
2023-05-09T07:52:39.232Z,98978.22
2023-05-09T07:55:06.774Z,98984.91
2023-05-09T07:57:33.530Z,98957.50
2023-05-09T08:00:00.292Z,98976.72
2023-05-09T08:02:27.157Z,98989.31
2023-05-09T08:04:55.148Z,98975.84
2023-05-09T08:07:21.837Z,98974.69
2023-05-09T08:09:48.566Z,98956.75
2023-05-09T08:12:15.285Z,98976.28
2023-05-09T08:14:41.999Z,98969.47
2023-05-09T08:17:08.777Z,98978.78
2023-05-09T08:19:35.532Z,98975.94
2023-05-09T08:22:02.237Z,98956.84
2023-05-09T08:24:29.516Z,98956.56
2023-05-09T08:26:56.235Z,98958.72
2023-05-09T08:29:23.009Z,98960.09
2023-05-09T08:31:49.846Z,98977.72
2023-05-09T08:34:16.598Z,98972.88
2023-05-09T08:36:46.789Z,98952.56
2023-05-09T08:39:13.534Z,98961.09
2023-05-09T08:41:40.415Z,98951.63
2023-05-09T08:44:07.880Z,98963.22
2023-05-09T08:46:39.102Z,98971.56
2023-05-09T08:49:08.387Z,98970.22
2023-05-09T08:51:38.695Z,98946.97
2023-05-09T08:54:05.699Z,98969.16
2023-05-09T08:56:32.576Z,98952.81
2023-05-09T08:58:59.989Z,98962.59
2023-05-09T09:01:28.064Z,98944.53
2023-05-09T09:03:56.611Z,98952.19
2023-05-09T09:06:26.003Z,98961.94
2023-05-09T09:08:56.808Z,98969.88
2023-05-09T09:11:24.292Z,98967.69
2023-05-09T09:13:56.563Z,98963.50
2023-05-09T09:16:25.821Z,98978.44
2023-05-09T09:18:55.821Z,98968.09
2023-05-09T09:21:26.454Z,98958.31
2023-05-09T09:23:56.692Z,98969.94
2023-05-09T09:26:24.838Z,98937.75
2023-05-09T09:28:51.650Z,98947.94
2023-05-09T09:31:22.347Z,98960.22
2023-05-09T09:33:49.559Z,98964.34
2023-05-09T09:36:16.467Z,98953.34
2023-05-09T09:38:45.116Z,98957.03
2023-05-09T09:41:13.545Z,98963.19
2023-05-09T09:43:45.945Z,98963.13
2023-05-09T09:46:20.840Z,98955.75
2023-05-09T09:48:55.245Z,98946.47
2023-05-09T09:51:21.898Z,98956.31
2023-05-09T09:53:49.018Z,98940.63
2023-05-09T09:56:16.131Z,98955.44
2023-05-09T09:58:42.805Z,98927.09
2023-05-09T10:01:11.237Z,98956.47
2023-05-09T10:03:45.576Z,98938.44
2023-05-09T10:06:14.817Z,98931.09
2023-05-09T10:08:42.437Z,98938.34
2023-05-09T10:11:10.764Z,98937.06
2023-05-09T10:13:38.866Z,98935.16
2023-05-09T10:16:08.799Z,98929.09
2023-05-09T10:18:36.327Z,98928.25
2023-05-09T10:21:05.410Z,98926.00
2023-05-09T10:23:37.452Z,98923.81
2023-05-09T10:26:27.790Z,98915.97
2023-05-09T10:28:57.287Z,98920.75
2023-05-09T10:31:29.694Z,98927.56
2023-05-09T10:33:57.017Z,98917.78
2023-05-09T10:36:26.730Z,98901.75
2023-05-09T10:38:55.389Z,98918.00
2023-05-09T10:41:24.623Z,98909.38
2023-05-09T10:43:52.571Z,98882.34
2023-05-09T10:46:20.053Z,98902.47
2023-05-09T10:48:49.292Z,98899.41
2023-05-09T10:51:17.267Z,98889.94
2023-05-09T10:53:46.947Z,98901.44
2023-05-09T10:56:33.291Z,98909.88
2023-05-09T10:59:00.912Z,98889.59
2023-05-09T11:01:35.478Z,98887.53
2023-05-09T11:04:14.711Z,98881.00
2023-05-09T11:06:45.688Z,98850.97
2023-05-09T11:09:41.458Z,98850.84
2023-05-09T11:12:14.001Z,98874.09
2023-05-09T11:14:45.069Z,98877.91
2023-05-09T11:17:13.841Z,98886.91
2023-05-09T11:19:46.533Z,98865.88
2023-05-09T11:22:20.481Z,98861.78
2023-05-09T11:24:51.501Z,98860.09
2023-05-09T11:27:29.696Z,98865.00
2023-05-09T11:29:58.896Z,98856.75
2023-05-09T11:32:32.178Z,98843.06
2023-05-09T11:35:19.596Z,98840.84
2023-05-09T11:38:00.468Z,98835.44
2023-05-09T11:40:28.729Z,98836.44
2023-05-09T11:42:58.720Z,98817.19
2023-05-09T11:45:31.673Z,98823.00
2023-05-09T11:47:59.390Z,98806.59
2023-05-09T11:50:27.117Z,98816.41
2023-05-09T11:52:54.402Z,98817.63
2023-05-09T11:55:23.108Z,98800.81
2023-05-09T11:57:52.926Z,98800.88
2023-05-09T12:00:27.063Z,98800.28
2023-05-09T12:02:54.353Z,98813.16
2023-05-09T12:05:23.202Z,98821.72
2023-05-09T12:07:50.504Z,98783.53
2023-05-09T12:10:21.065Z,98803.63
2023-05-09T12:12:50.351Z,98800.88
2023-05-09T12:15:18.861Z,98809.50
2023-05-09T12:17:50.450Z,98797.56
2023-05-09T12:20:19.397Z,98785.59
2023-05-09T12:22:55.107Z,98796.75
2023-05-09T12:25:22.660Z,98774.97
2023-05-09T12:27:49.438Z,98798.97
2023-05-09T12:30:18.748Z,98784.25
2023-05-09T12:32:46.721Z,98780.81
2023-05-09T12:35:13.881Z,98774.06
2023-05-09T12:37:40.865Z,98795.44
2023-05-09T12:40:13.050Z,98774.38
2023-05-09T12:42:44.034Z,98779.72
2023-05-09T12:45:11.503Z,98774.66
2023-05-09T12:47:39.251Z,98765.44
2023-05-09T12:50:07.147Z,98754.09
2023-05-09T12:52:58.406Z,98764.03
2023-05-09T12:55:29.312Z,98759.69
2023-05-09T12:58:01.851Z,98759.31
2023-05-09T13:00:29.308Z,98757.59
2023-05-09T13:02:57.242Z,98762.19
2023-05-09T13:05:24.477Z,98738.75
2023-05-09T13:07:52.724Z,98744.81
2023-05-09T13:10:29.027Z,98742.03
2023-05-09T13:12:56.022Z,98738.88
2023-05-09T13:15:24.203Z,98743.53
2023-05-09T13:17:52.478Z,98732.78
2023-05-09T13:20:19.736Z,98730.13
2023-05-09T13:22:46.893Z,98727.66
2023-05-09T13:25:14.129Z,98725.59
2023-05-09T13:27:41.060Z,98707.53
2023-05-09T13:30:08.891Z,98730.41
2023-05-09T13:32:37.502Z,98726.63
2023-05-09T13:35:06.886Z,98724.97
2023-05-09T13:37:35.264Z,98720.31
2023-05-09T13:40:02.759Z,98724.88
2023-05-09T13:42:29.454Z,98711.00
2023-05-09T13:44:56.329Z,98717.41
2023-05-09T13:47:23.077Z,98710.00
2023-05-09T13:49:49.792Z,98709.81
2023-05-09T13:52:16.559Z,98700.41
2023-05-09T13:54:43.751Z,98685.66
2023-05-09T13:57:11.253Z,98702.44
2023-05-09T13:59:38.113Z,98694.38
2023-05-09T14:02:05.200Z,98688.06
2023-05-09T14:04:32.131Z,98679.69
2023-05-09T14:07:00.071Z,98681.13
2023-05-09T14:09:27.662Z,98689.00
2023-05-09T14:11:55.954Z,98672.19
2023-05-09T14:14:25.133Z,98678.81
2023-05-09T14:16:52.165Z,98677.19
2023-05-09T14:19:19.134Z,98672.06
2023-05-09T14:21:47.432Z,98675.69
2023-05-09T14:24:16.296Z,98654.94
2023-05-09T14:26:43.854Z,98675.59
2023-05-09T14:29:11.181Z,98665.00
2023-05-09T14:31:38.856Z,98667.78
2023-05-09T14:34:06.710Z,98655.03
2023-05-09T14:36:33.366Z,98656.63
2023-05-09T14:39:00.176Z,98652.44
2023-05-09T14:41:27.017Z,98658.75
2023-05-09T14:43:54.071Z,98636.91
2023-05-09T14:46:20.916Z,98652.75
2023-05-09T14:48:47.657Z,98640.66
2023-05-09T14:51:14.441Z,98652.91
2023-05-09T14:53:42.161Z,98653.41
2023-05-09T14:56:11.517Z,98652.78
2023-05-09T14:58:38.484Z,98631.50
2023-05-09T15:01:05.403Z,98629.00
2023-05-09T15:03:33.127Z,98620.13
2023-05-09T15:05:59.930Z,98622.31
2023-05-09T15:08:27.241Z,98618.59
2023-05-09T15:10:58.376Z,98618.84
2023-05-09T15:13:25.195Z,98618.09
2023-05-09T15:15:52.549Z,98605.53
2023-05-09T15:18:22.112Z,98593.81
2023-05-09T15:20:48.990Z,98593.63
2023-05-09T15:23:15.727Z,98607.47
2023-05-09T15:25:43.257Z,98603.84
2023-05-09T15:28:09.950Z,98600.25
2023-05-09T15:30:38.938Z,98586.22
2023-05-09T15:33:07.958Z,98588.56
2023-05-09T15:35:35.138Z,98593.97
2023-05-09T15:38:03.120Z,98580.00
2023-05-09T15:40:31.204Z,98579.75
2023-05-09T15:42:58.556Z,98588.13
2023-05-09T15:45:25.459Z,98577.84
2023-05-09T15:47:52.772Z,98582.50
2023-05-09T15:50:19.590Z,98570.34
2023-05-09T15:52:46.344Z,98565.59
2023-05-09T15:55:13.287Z,98583.44
2023-05-09T15:57:40.133Z,98585.25
2023-05-09T16:00:07.471Z,98578.81
2023-05-09T16:02:34.245Z,98578.25
2023-05-09T16:05:01.182Z,98563.72
2023-05-09T16:07:32.145Z,98565.13
2023-05-09T16:10:00.065Z,98561.22
2023-05-09T16:12:33.116Z,98543.38
2023-05-09T16:15:01.096Z,98559.59
2023-05-09T16:17:28.289Z,98560.16
2023-05-09T16:19:57.952Z,98551.84
2023-05-09T16:22:25.052Z,98537.63
2023-05-09T16:24:52.917Z,98541.78
2023-05-09T16:27:20.281Z,98549.75
2023-05-09T16:29:46.949Z,98552.09
2023-05-09T16:32:13.724Z,98540.78
2023-05-09T16:34:43.469Z,98542.59
2023-05-09T16:37:10.304Z,98537.81
2023-05-09T16:39:38.103Z,98537.50
2023-05-09T16:42:05.652Z,98542.78
2023-05-09T16:44:32.395Z,98534.78
2023-05-09T16:46:59.050Z,98525.19
2023-05-09T16:49:25.830Z,98529.22
2023-05-09T16:51:52.577Z,98539.22
2023-05-09T16:54:19.383Z,98536.38
2023-05-09T16:56:46.596Z,98524.22
2023-05-09T16:59:13.478Z,98522.69
2023-05-09T17:01:40.959Z,98509.88
2023-05-09T17:04:09.014Z,98517.16
2023-05-09T17:06:35.818Z,98512.13
2023-05-09T17:09:02.731Z,98514.38
2023-05-09T17:11:30.466Z,98510.88
2023-05-09T17:13:57.227Z,98517.94
2023-05-09T17:16:24.039Z,98515.38
2023-05-09T17:21:17.141Z,98501.75
2023-05-09T17:23:44.008Z,98511.16
2023-05-09T17:26:10.939Z,98526.34
2023-05-09T17:28:37.772Z,98513.22
2023-05-09T17:31:04.613Z,98511.69
2023-05-09T17:33:31.542Z,98517.50
2023-05-09T17:36:00.167Z,98502.66
2023-05-09T17:38:26.945Z,98501.53
2023-05-09T17:40:54.900Z,98506.84
2023-05-09T17:43:22.492Z,98514.72
2023-05-09T17:45:52.592Z,98514.22
2023-05-09T17:48:19.948Z,98507.88
2023-05-09T17:50:47.477Z,98513.63
2023-05-09T17:53:14.245Z,98506.66
2023-05-09T17:55:41.997Z,98515.28
2023-05-09T17:58:09.490Z,98513.81
2023-05-09T18:00:36.672Z,98508.75
2023-05-09T18:03:04.223Z,98513.81
2023-05-09T18:05:31.092Z,98507.91
2023-05-09T18:07:59.420Z,98512.59
2023-05-09T18:10:26.379Z,98500.31
2023-05-09T18:12:53.093Z,98498.25
2023-05-09T18:15:19.900Z,98501.44
2023-05-09T18:17:50.478Z,98509.16
2023-05-09T18:20:17.508Z,98507.69
2023-05-09T18:22:44.653Z,98505.38
2023-05-09T18:25:11.612Z,98504.75
2023-05-09T18:27:38.733Z,98508.41
2023-05-09T18:30:06.864Z,98510.66
2023-05-09T18:32:33.704Z,98514.69
2023-05-09T18:35:00.369Z,98508.88
2023-05-09T18:37:28.339Z,98513.78
2023-05-09T18:39:55.012Z,98517.22
2023-05-09T18:42:22.323Z,98519.50
2023-05-09T18:44:49.372Z,98519.88
2023-05-09T18:47:16.197Z,98517.78
2023-05-09T18:49:43.976Z,98527.94
2023-05-09T18:52:11.104Z,98533.34
2023-05-09T18:54:38.287Z,98525.47
2023-05-09T18:57:05.168Z,98528.00
2023-05-09T18:59:32.031Z,98524.69
2023-05-09T19:01:58.736Z,98527.63
2023-05-09T19:04:25.979Z,98521.59
2023-05-09T19:06:52.787Z,98521.81
2023-05-09T19:09:19.530Z,98522.06
2023-05-09T19:11:48.847Z,98513.47
2023-05-09T19:14:18.247Z,98519.97
2023-05-09T19:16:44.937Z,98523.09
2023-05-09T19:19:11.715Z,98526.78
2023-05-09T19:21:38.622Z,98511.94
2023-05-09T19:24:07.194Z,98523.94
2023-05-09T19:26:34.396Z,98515.41
2023-05-09T19:29:04.153Z,98521.06
2023-05-09T19:31:31.824Z,98512.91
2023-05-09T19:33:58.808Z,98515.06
2023-05-09T19:36:25.495Z,98515.59
2023-05-09T19:38:55.052Z,98510.56
2023-05-09T19:41:21.845Z,98508.19
2023-05-09T19:43:50.813Z,98504.88
2023-05-09T19:46:18.707Z,98500.91
2023-05-09T19:48:45.961Z,98509.19
2023-05-09T19:51:14.907Z,98506.75
2023-05-09T19:53:43.282Z,98506.84
2023-05-09T19:56:10.208Z,98512.56
2023-05-09T19:58:37.142Z,98505.91
2023-05-09T20:01:05.280Z,98516.03
2023-05-09T20:03:32.233Z,98507.41
2023-05-09T20:05:59.101Z,98507.63
2023-05-09T20:08:26.086Z,98514.22
2023-05-09T20:10:53.274Z,98512.41
2023-05-09T20:13:20.555Z,98508.31
2023-05-09T20:15:47.872Z,98514.00
2023-05-09T20:18:16.416Z,98507.47
2023-05-09T20:20:43.497Z,98503.78
2023-05-09T20:23:10.315Z,98508.66
2023-05-09T20:25:37.111Z,98493.56
2023-05-09T20:28:03.837Z,98494.75
2023-05-09T20:30:30.640Z,98505.59
2023-05-09T20:33:00.047Z,98498.63
2023-05-09T20:35:26.777Z,98494.72
2023-05-09T20:37:53.513Z,98506.47
2023-05-09T20:40:20.369Z,98497.66
2023-05-09T20:42:47.301Z,98506.69
2023-05-09T20:45:14.207Z,98502.28
2023-05-09T20:47:40.974Z,98498.63
2023-05-09T20:50:08.358Z,98497.88
2023-05-09T20:52:35.534Z,98502.50
2023-05-09T20:55:02.349Z,98499.91
2023-05-09T20:57:29.130Z,98499.91
2023-05-09T20:59:55.826Z,98496.25
2023-05-09T21:02:22.744Z,98499.91
2023-05-09T21:04:49.456Z,98502.06
2023-05-09T21:07:19.261Z,98494.84
2023-05-09T21:09:50.048Z,98487.63
2023-05-09T21:12:17.428Z,98493.00
2023-05-09T21:14:44.922Z,98495.28
2023-05-09T21:17:13.082Z,98493.63
2023-05-09T21:19:39.877Z,98479.53
2023-05-09T21:22:07.130Z,98477.19
2023-05-09T21:24:35.206Z,98487.94
2023-05-09T21:27:01.985Z,98486.19
2023-05-09T21:29:28.662Z,98475.56
2023-05-09T21:31:55.783Z,98473.19
2023-05-09T21:34:22.566Z,98488.53
2023-05-09T21:36:49.260Z,98481.31
2023-05-09T21:39:15.954Z,98485.09
2023-05-09T21:41:43.008Z,98485.84
2023-05-09T21:44:12.095Z,98484.13
2023-05-09T21:46:39.058Z,98481.66
2023-05-09T21:49:05.989Z,98487.13
2023-05-09T21:51:33.597Z,98486.16
2023-05-09T21:54:01.275Z,98469.19
2023-05-09T21:56:28.180Z,98471.09
2023-05-09T21:58:55.733Z,98468.53
2023-05-09T22:01:22.580Z,98472.25
2023-05-09T22:03:49.577Z,98478.63
2023-05-09T22:06:16.341Z,98483.16
2023-05-09T22:08:43.094Z,98477.00
2023-05-09T22:11:10.215Z,98473.53
2023-05-09T22:13:37.706Z,98473.53
2023-05-09T22:16:05.010Z,98465.59
2023-05-09T22:18:31.980Z,98477.41
2023-05-09T22:20:59.051Z,98467.72
2023-05-09T22:23:25.886Z,98466.00
2023-05-09T22:25:54.261Z,98460.84
2023-05-09T22:28:21.016Z,98461.13
2023-05-09T22:30:47.749Z,98460.38
2023-05-09T22:33:14.459Z,98458.88
2023-05-09T22:35:41.197Z,98459.72
2023-05-09T22:38:07.906Z,98456.28
2023-05-09T22:40:34.734Z,98461.13
2023-05-09T22:43:01.502Z,98456.94
2023-05-09T22:45:28.213Z,98461.50
2023-05-09T22:47:55.348Z,98454.63
2023-05-09T22:50:22.077Z,98460.41
2023-05-09T22:52:48.813Z,98454.47
2023-05-09T22:55:15.578Z,98453.84
2023-05-09T22:57:42.354Z,98451.25
2023-05-09T23:00:10.480Z,98456.81
2023-05-09T23:02:37.637Z,98450.78
2023-05-09T23:05:04.619Z,98445.63
2023-05-09T23:07:33.095Z,98444.28
2023-05-09T23:09:59.858Z,98455.13
2023-05-09T23:12:26.687Z,98447.91
2023-05-09T23:14:53.428Z,98444.59
2023-05-09T23:17:20.112Z,98451.00
2023-05-09T23:19:47.126Z,98444.78
2023-05-09T23:22:13.801Z,98443.19
2023-05-09T23:24:40.517Z,98443.19
2023-05-09T23:27:07.193Z,98445.06
2023-05-09T23:29:33.944Z,98442.88
2023-05-09T23:32:00.661Z,98438.59
2023-05-09T23:34:27.333Z,98436.75
2023-05-09T23:36:54.157Z,98425.47
2023-05-09T23:39:20.909Z,98432.94
2023-05-09T23:41:47.683Z,98436.97
2023-05-09T23:44:14.357Z,98427.41
2023-05-09T23:46:41.106Z,98422.34
2023-05-09T23:49:10.772Z,98431.44
2023-05-09T23:51:40.038Z,98429.72
2023-05-09T23:54:07.498Z,98425.59
2023-05-09T23:56:34.160Z,98425.69
2023-05-09T23:59:03.489Z,98425.13
